sensor_id;sensor_type;location;lat;lon;timestamp;P1;durP1;ratioP1;P2;durP2;ratioP2
5752;SDS011;2901;42.140;24.760;2024-01-10T00:01:54;16.50;;;13.03;;
5752;SDS011;2901;42.140;24.760;2024-01-10T00:04:20;14.70;;;11.87;;
5752;SDS011;2901;42.140;24.760;2024-01-10T00:06:45;16.40;;;12.37;;
5752;SDS011;2901;42.140;24.760;2024-01-10T00:09:11;14.03;;;11.80;;
5752;SDS011;2901;42.140;24.760;2024-01-10T00:11:36;14.77;;;12.73;;
5752;SDS011;2901;42.140;24.760;2024-01-10T00:14:01;17.33;;;12.77;;
5752;SDS011;2901;42.140;24.760;2024-01-10T00:16:28;16.53;;;12.43;;
5752;SDS011;2901;42.140;24.760;2024-01-10T00:18:53;17.47;;;12.67;;
5752;SDS011;2901;42.140;24.760;2024-01-10T00:21:19;15.30;;;12.43;;
5752;SDS011;2901;42.140;24.760;2024-01-10T00:23:44;16.70;;;14.27;;
5752;SDS011;2901;42.140;24.760;2024-01-10T00:26:10;23.40;;;14.47;;
5752;SDS011;2901;42.140;24.760;2024-01-10T00:28:35;18.97;;;14.13;;
5752;SDS011;2901;42.140;24.760;2024-01-10T00:31:00;16.03;;;13.57;;
5752;SDS011;2901;42.140;24.760;2024-01-10T00:33:26;20.17;;;13.43;;
5752;SDS011;2901;42.140;24.760;2024-01-10T00:35:51;18.17;;;13.93;;
5752;SDS011;2901;42.140;24.760;2024-01-10T00:38:17;16.33;;;13.50;;
5752;SDS011;2901;42.140;24.760;2024-01-10T00:40:42;18.70;;;13.73;;
5752;SDS011;2901;42.140;24.760;2024-01-10T00:43:07;14.33;;;12.83;;
5752;SDS011;2901;42.140;24.760;2024-01-10T00:45:33;19.97;;;14.20;;
5752;SDS011;2901;42.140;24.760;2024-01-10T00:47:58;18.27;;;14.37;;
5752;SDS011;2901;42.140;24.760;2024-01-10T00:50:24;18.77;;;12.67;;
5752;SDS011;2901;42.140;24.760;2024-01-10T00:52:49;21.47;;;14.83;;
5752;SDS011;2901;42.140;24.760;2024-01-10T00:55:15;22.43;;;15.47;;
5752;SDS011;2901;42.140;24.760;2024-01-10T00:57:40;20.77;;;15.03;;
5752;SDS011;2901;42.140;24.760;2024-01-10T01:00:06;15.30;;;12.73;;
5752;SDS011;2901;42.140;24.760;2024-01-10T01:02:32;19.07;;;13.50;;
5752;SDS011;2901;42.140;24.760;2024-01-10T01:04:58;15.87;;;11.97;;
5752;SDS011;2901;42.140;24.760;2024-01-10T01:07:23;11.97;;;10.43;;
5752;SDS011;2901;42.140;24.760;2024-01-10T01:09:49;13.47;;;11.83;;
5752;SDS011;2901;42.140;24.760;2024-01-10T01:12:14;14.00;;;10.57;;
5752;SDS011;2901;42.140;24.760;2024-01-10T01:14:39;14.37;;;11.77;;
5752;SDS011;2901;42.140;24.760;2024-01-10T01:17:05;14.50;;;11.10;;
5752;SDS011;2901;42.140;24.760;2024-01-10T01:19:30;17.43;;;12.90;;
5752;SDS011;2901;42.140;24.760;2024-01-10T01:21:56;14.93;;;12.37;;
5752;SDS011;2901;42.140;24.760;2024-01-10T01:24:21;19.43;;;12.80;;
5752;SDS011;2901;42.140;24.760;2024-01-10T01:26:46;16.37;;;13.50;;
5752;SDS011;2901;42.140;24.760;2024-01-10T01:29:12;18.90;;;13.77;;
5752;SDS011;2901;42.140;24.760;2024-01-10T01:31:37;17.97;;;13.30;;
5752;SDS011;2901;42.140;24.760;2024-01-10T01:34:03;13.83;;;12.33;;
5752;SDS011;2901;42.140;24.760;2024-01-10T01:36:28;18.63;;;12.87;;
5752;SDS011;2901;42.140;24.760;2024-01-10T01:38:54;19.83;;;13.83;;
5752;SDS011;2901;42.140;24.760;2024-01-10T01:41:19;16.57;;;12.87;;
5752;SDS011;2901;42.140;24.760;2024-01-10T01:43:44;16.67;;;13.67;;
5752;SDS011;2901;42.140;24.760;2024-01-10T01:46:10;17.70;;;13.87;;
5752;SDS011;2901;42.140;24.760;2024-01-10T01:48:36;19.40;;;13.70;;
5752;SDS011;2901;42.140;24.760;2024-01-10T01:51:04;20.33;;;13.03;;
5752;SDS011;2901;42.140;24.760;2024-01-10T01:53:32;20.00;;;13.37;;
5752;SDS011;2901;42.140;24.760;2024-01-10T01:56:00;19.33;;;14.30;;
5752;SDS011;2901;42.140;24.760;2024-01-10T01:58:29;21.63;;;13.70;;
5752;SDS011;2901;42.140;24.760;2024-01-10T02:00:54;17.40;;;12.83;;
5752;SDS011;2901;42.140;24.760;2024-01-10T02:03:21;19.40;;;15.00;;
5752;SDS011;2901;42.140;24.760;2024-01-10T02:05:46;22.30;;;15.07;;
5752;SDS011;2901;42.140;24.760;2024-01-10T02:08:12;22.10;;;15.30;;
5752;SDS011;2901;42.140;24.760;2024-01-10T02:10:38;26.73;;;15.57;;
5752;SDS011;2901;42.140;24.760;2024-01-10T02:13:04;25.23;;;16.13;;
5752;SDS011;2901;42.140;24.760;2024-01-10T02:15:30;22.17;;;15.90;;
5752;SDS011;2901;42.140;24.760;2024-01-10T02:17:56;20.57;;;15.43;;
5752;SDS011;2901;42.140;24.760;2024-01-10T02:20:22;22.30;;;15.33;;
5752;SDS011;2901;42.140;24.760;2024-01-10T02:22:47;20.27;;;14.90;;
5752;SDS011;2901;42.140;24.760;2024-01-10T02:25:15;20.97;;;15.50;;
5752;SDS011;2901;42.140;24.760;2024-01-10T02:27:41;23.03;;;14.70;;
5752;SDS011;2901;42.140;24.760;2024-01-10T02:30:07;19.03;;;13.93;;
5752;SDS011;2901;42.140;24.760;2024-01-10T02:32:34;20.47;;;14.03;;
5752;SDS011;2901;42.140;24.760;2024-01-10T02:35:00;14.77;;;12.73;;
5752;SDS011;2901;42.140;24.760;2024-01-10T02:37:25;15.13;;;11.60;;
5752;SDS011;2901;42.140;24.760;2024-01-10T02:39:51;15.27;;;12.27;;
5752;SDS011;2901;42.140;24.760;2024-01-10T02:42:16;15.93;;;12.83;;
5752;SDS011;2901;42.140;24.760;2024-01-10T02:44:42;14.07;;;12.13;;
5752;SDS011;2901;42.140;24.760;2024-01-10T02:47:09;16.50;;;12.97;;
5752;SDS011;2901;42.140;24.760;2024-01-10T02:49:35;16.37;;;13.30;;
5752;SDS011;2901;42.140;24.760;2024-01-10T02:52:00;15.00;;;12.13;;
5752;SDS011;2901;42.140;24.760;2024-01-10T02:54:26;16.83;;;12.87;;
5752;SDS011;2901;42.140;24.760;2024-01-10T02:56:51;13.17;;;11.80;;
5752;SDS011;2901;42.140;24.760;2024-01-10T02:59:16;18.47;;;13.00;;
5752;SDS011;2901;42.140;24.760;2024-01-10T03:01:42;12.43;;;10.30;;
5752;SDS011;2901;42.140;24.760;2024-01-10T03:04:08;10.97;;;9.67;;
5752;SDS011;2901;42.140;24.760;2024-01-10T03:06:33;11.13;;;10.07;;
5752;SDS011;2901;42.140;24.760;2024-01-10T03:08:58;12.80;;;10.57;;
5752;SDS011;2901;42.140;24.760;2024-01-10T03:11:24;12.10;;;10.63;;
5752;SDS011;2901;42.140;24.760;2024-01-10T03:13:50;12.33;;;10.03;;
5752;SDS011;2901;42.140;24.760;2024-01-10T03:16:26;13.73;;;12.27;;
5752;SDS011;2901;42.140;24.760;2024-01-10T03:18:51;11.80;;;10.43;;
5752;SDS011;2901;42.140;24.760;2024-01-10T03:21:17;16.37;;;11.40;;
5752;SDS011;2901;42.140;24.760;2024-01-10T03:23:49;12.73;;;11.40;;
5752;SDS011;2901;42.140;24.760;2024-01-10T03:26:22;13.67;;;12.20;;
5752;SDS011;2901;42.140;24.760;2024-01-10T03:28:51;14.33;;;12.50;;
5752;SDS011;2901;42.140;24.760;2024-01-10T03:31:17;14.63;;;11.57;;
5752;SDS011;2901;42.140;24.760;2024-01-10T03:33:42;15.03;;;11.37;;
5752;SDS011;2901;42.140;24.760;2024-01-10T03:36:11;12.77;;;11.37;;
5752;SDS011;2901;42.140;24.760;2024-01-10T03:38:37;12.67;;;11.37;;
5752;SDS011;2901;42.140;24.760;2024-01-10T03:41:02;12.30;;;10.80;;
5752;SDS011;2901;42.140;24.760;2024-01-10T03:43:28;21.50;;;12.17;;
5752;SDS011;2901;42.140;24.760;2024-01-10T03:45:53;17.77;;;11.30;;
5752;SDS011;2901;42.140;24.760;2024-01-10T03:48:19;15.37;;;11.40;;
5752;SDS011;2901;42.140;24.760;2024-01-10T03:50:44;13.77;;;11.43;;
5752;SDS011;2901;42.140;24.760;2024-01-10T03:53:10;15.00;;;11.83;;
5752;SDS011;2901;42.140;24.760;2024-01-10T03:55:35;18.00;;;11.13;;
5752;SDS011;2901;42.140;24.760;2024-01-10T03:58:00;18.87;;;11.93;;
5752;SDS011;2901;42.140;24.760;2024-01-10T04:00:26;13.97;;;11.87;;
5752;SDS011;2901;42.140;24.760;2024-01-10T04:02:51;11.97;;;10.77;;
5752;SDS011;2901;42.140;24.760;2024-01-10T04:05:17;19.33;;;12.97;;
5752;SDS011;2901;42.140;24.760;2024-01-10T04:07:44;15.33;;;11.17;;
5752;SDS011;2901;42.140;24.760;2024-01-10T04:10:10;14.93;;;11.33;;
5752;SDS011;2901;42.140;24.760;2024-01-10T04:12:36;14.77;;;11.70;;
5752;SDS011;2901;42.140;24.760;2024-01-10T04:15:05;13.60;;;11.37;;
5752;SDS011;2901;42.140;24.760;2024-01-10T04:17:31;15.50;;;11.57;;
5752;SDS011;2901;42.140;24.760;2024-01-10T04:19:57;13.63;;;10.80;;
5752;SDS011;2901;42.140;24.760;2024-01-10T04:22:26;15.23;;;10.60;;
5752;SDS011;2901;42.140;24.760;2024-01-10T04:24:51;15.27;;;11.27;;
5752;SDS011;2901;42.140;24.760;2024-01-10T04:27:17;14.87;;;11.37;;
5752;SDS011;2901;42.140;24.760;2024-01-10T04:29:45;14.77;;;11.73;;
5752;SDS011;2901;42.140;24.760;2024-01-10T04:32:10;15.27;;;11.53;;
5752;SDS011;2901;42.140;24.760;2024-01-10T04:34:36;12.83;;;11.10;;
5752;SDS011;2901;42.140;24.760;2024-01-10T04:37:02;16.73;;;11.70;;
5752;SDS011;2901;42.140;24.760;2024-01-10T04:39:27;14.77;;;10.70;;
5752;SDS011;2901;42.140;24.760;2024-01-10T04:41:53;14.20;;;11.27;;
5752;SDS011;2901;42.140;24.760;2024-01-10T04:44:19;14.37;;;11.67;;
5752;SDS011;2901;42.140;24.760;2024-01-10T04:46:44;13.80;;;12.13;;
5752;SDS011;2901;42.140;24.760;2024-01-10T04:49:10;13.53;;;11.53;;
5752;SDS011;2901;42.140;24.760;2024-01-10T04:51:35;12.53;;;10.97;;
5752;SDS011;2901;42.140;24.760;2024-01-10T04:54:01;13.83;;;10.17;;
5752;SDS011;2901;42.140;24.760;2024-01-10T04:56:26;19.60;;;12.30;;
5752;SDS011;2901;42.140;24.760;2024-01-10T04:58:52;14.30;;;11.60;;
5752;SDS011;2901;42.140;24.760;2024-01-10T05:01:17;17.93;;;12.33;;
5752;SDS011;2901;42.140;24.760;2024-01-10T05:03:43;14.57;;;11.87;;
5752;SDS011;2901;42.140;24.760;2024-01-10T05:06:08;18.67;;;12.47;;
5752;SDS011;2901;42.140;24.760;2024-01-10T05:08:34;17.43;;;12.40;;
5752;SDS011;2901;42.140;24.760;2024-01-10T05:10:59;14.40;;;11.10;;
5752;SDS011;2901;42.140;24.760;2024-01-10T05:13:25;17.20;;;11.57;;
5752;SDS011;2901;42.140;24.760;2024-01-10T05:15:50;14.90;;;11.67;;
5752;SDS011;2901;42.140;24.760;2024-01-10T05:18:16;14.63;;;11.33;;
5752;SDS011;2901;42.140;24.760;2024-01-10T05:20:42;17.43;;;11.47;;
5752;SDS011;2901;42.140;24.760;2024-01-10T05:23:07;16.00;;;11.80;;
5752;SDS011;2901;42.140;24.760;2024-01-10T05:25:32;18.70;;;12.97;;
5752;SDS011;2901;42.140;24.760;2024-01-10T05:27:58;17.10;;;12.40;;
5752;SDS011;2901;42.140;24.760;2024-01-10T05:30:23;22.07;;;13.20;;
5752;SDS011;2901;42.140;24.760;2024-01-10T05:32:49;20.20;;;13.03;;
5752;SDS011;2901;42.140;24.760;2024-01-10T05:35:14;16.20;;;12.50;;
5752;SDS011;2901;42.140;24.760;2024-01-10T05:37:40;22.57;;;13.07;;
5752;SDS011;2901;42.140;24.760;2024-01-10T05:40:05;22.13;;;13.60;;
5752;SDS011;2901;42.140;24.760;2024-01-10T05:42:31;34.17;;;15.07;;
5752;SDS011;2901;42.140;24.760;2024-01-10T05:44:58;24.03;;;14.30;;
5752;SDS011;2901;42.140;24.760;2024-01-10T05:47:24;17.83;;;13.53;;
5752;SDS011;2901;42.140;24.760;2024-01-10T05:49:50;19.83;;;14.60;;
5752;SDS011;2901;42.140;24.760;2024-01-10T05:52:18;24.47;;;13.93;;
5752;SDS011;2901;42.140;24.760;2024-01-10T05:54:43;28.27;;;14.83;;
5752;SDS011;2901;42.140;24.760;2024-01-10T05:57:09;18.30;;;13.37;;
5752;SDS011;2901;42.140;24.760;2024-01-10T05:59:34;28.60;;;17.47;;
5752;SDS011;2901;42.140;24.760;2024-01-10T06:02:00;14.53;;;13.03;;
5752;SDS011;2901;42.140;24.760;2024-01-10T06:04:27;20.77;;;13.83;;
5752;SDS011;2901;42.140;24.760;2024-01-10T06:06:55;21.33;;;14.43;;
5752;SDS011;2901;42.140;24.760;2024-01-10T06:09:22;19.73;;;12.43;;
5752;SDS011;2901;42.140;24.760;2024-01-10T06:11:48;16.00;;;10.87;;
5752;SDS011;2901;42.140;24.760;2024-01-10T06:14:13;26.93;;;14.63;;
5752;SDS011;2901;42.140;24.760;2024-01-10T06:16:39;15.80;;;11.77;;
5752;SDS011;2901;42.140;24.760;2024-01-10T06:19:05;17.00;;;10.97;;
5752;SDS011;2901;42.140;24.760;2024-01-10T06:21:30;19.63;;;11.33;;
5752;SDS011;2901;42.140;24.760;2024-01-10T06:23:56;18.03;;;12.93;;
5752;SDS011;2901;42.140;24.760;2024-01-10T06:26:21;21.07;;;13.73;;
5752;SDS011;2901;42.140;24.760;2024-01-10T06:28:47;20.63;;;13.63;;
5752;SDS011;2901;42.140;24.760;2024-01-10T06:31:12;19.37;;;14.17;;
5752;SDS011;2901;42.140;24.760;2024-01-10T06:33:38;20.27;;;14.63;;
5752;SDS011;2901;42.140;24.760;2024-01-10T06:36:04;24.33;;;15.63;;
5752;SDS011;2901;42.140;24.760;2024-01-10T06:38:29;21.13;;;14.13;;
5752;SDS011;2901;42.140;24.760;2024-01-10T06:40:54;30.17;;;14.77;;
5752;SDS011;2901;42.140;24.760;2024-01-10T06:43:20;20.30;;;14.53;;
5752;SDS011;2901;42.140;24.760;2024-01-10T06:45:45;23.10;;;14.40;;
5752;SDS011;2901;42.140;24.760;2024-01-10T06:48:11;21.60;;;14.60;;
5752;SDS011;2901;42.140;24.760;2024-01-10T06:50:38;23.23;;;15.70;;
5752;SDS011;2901;42.140;24.760;2024-01-10T06:53:03;22.70;;;15.70;;
5752;SDS011;2901;42.140;24.760;2024-01-10T06:55:29;27.63;;;16.13;;
5752;SDS011;2901;42.140;24.760;2024-01-10T06:57:54;23.97;;;15.93;;
5752;SDS011;2901;42.140;24.760;2024-01-10T07:00:20;21.93;;;14.67;;
5752;SDS011;2901;42.140;24.760;2024-01-10T07:02:46;23.90;;;15.60;;
5752;SDS011;2901;42.140;24.760;2024-01-10T07:05:13;23.73;;;16.13;;
5752;SDS011;2901;42.140;24.760;2024-01-10T07:07:39;25.77;;;17.07;;
5752;SDS011;2901;42.140;24.760;2024-01-10T07:10:05;27.03;;;16.70;;
5752;SDS011;2901;42.140;24.760;2024-01-10T07:12:31;22.80;;;16.90;;
5752;SDS011;2901;42.140;24.760;2024-01-10T07:14:58;22.40;;;15.83;;
5752;SDS011;2901;42.140;24.760;2024-01-10T07:17:23;23.40;;;16.67;;
5752;SDS011;2901;42.140;24.760;2024-01-10T07:19:48;27.80;;;16.20;;
5752;SDS011;2901;42.140;24.760;2024-01-10T07:22:14;22.43;;;15.90;;
5752;SDS011;2901;42.140;24.760;2024-01-10T07:24:40;21.10;;;15.57;;
5752;SDS011;2901;42.140;24.760;2024-01-10T07:27:05;25.80;;;16.80;;
5752;SDS011;2901;42.140;24.760;2024-01-10T07:29:32;31.10;;;17.53;;
5752;SDS011;2901;42.140;24.760;2024-01-10T07:31:57;28.67;;;17.23;;
5752;SDS011;2901;42.140;24.760;2024-01-10T07:34:22;25.17;;;16.77;;
5752;SDS011;2901;42.140;24.760;2024-01-10T07:36:48;25.20;;;16.47;;
5752;SDS011;2901;42.140;24.760;2024-01-10T07:39:14;26.87;;;15.93;;
5752;SDS011;2901;42.140;24.760;2024-01-10T07:41:43;23.40;;;17.00;;
5752;SDS011;2901;42.140;24.760;2024-01-10T07:44:09;26.57;;;16.93;;
5752;SDS011;2901;42.140;24.760;2024-01-10T07:46:35;26.87;;;17.07;;
5752;SDS011;2901;42.140;24.760;2024-01-10T07:49:02;29.00;;;17.37;;
5752;SDS011;2901;42.140;24.760;2024-01-10T07:51:29;23.87;;;15.27;;
5752;SDS011;2901;42.140;24.760;2024-01-10T07:53:54;21.47;;;15.77;;
5752;SDS011;2901;42.140;24.760;2024-01-10T07:56:20;26.93;;;16.00;;
5752;SDS011;2901;42.140;24.760;2024-01-10T07:58:45;28.60;;;15.90;;
5752;SDS011;2901;42.140;24.760;2024-01-10T08:01:11;26.47;;;17.13;;
5752;SDS011;2901;42.140;24.760;2024-01-10T08:03:36;24.10;;;16.23;;
5752;SDS011;2901;42.140;24.760;2024-01-10T08:06:02;25.07;;;16.20;;
5752;SDS011;2901;42.140;24.760;2024-01-10T08:08:28;23.10;;;15.73;;
5752;SDS011;2901;42.140;24.760;2024-01-10T08:10:53;25.43;;;17.57;;
5752;SDS011;2901;42.140;24.760;2024-01-10T08:13:19;30.80;;;18.97;;
5752;SDS011;2901;42.140;24.760;2024-01-10T08:15:44;28.30;;;19.57;;
5752;SDS011;2901;42.140;24.760;2024-01-10T08:18:10;39.23;;;25.63;;
5752;SDS011;2901;42.140;24.760;2024-01-10T08:20:35;41.97;;;26.57;;
5752;SDS011;2901;42.140;24.760;2024-01-10T08:23:00;40.63;;;25.23;;
5752;SDS011;2901;42.140;24.760;2024-01-10T08:25:26;46.43;;;25.00;;
5752;SDS011;2901;42.140;24.760;2024-01-10T08:27:51;46.03;;;25.03;;
5752;SDS011;2901;42.140;24.760;2024-01-10T08:30:22;41.57;;;23.47;;
5752;SDS011;2901;42.140;24.760;2024-01-10T08:32:47;48.03;;;25.50;;
5752;SDS011;2901;42.140;24.760;2024-01-10T08:35:13;44.50;;;24.93;;
5752;SDS011;2901;42.140;24.760;2024-01-10T08:37:39;39.23;;;23.90;;
5752;SDS011;2901;42.140;24.760;2024-01-10T08:40:08;43.23;;;25.40;;
5752;SDS011;2901;42.140;24.760;2024-01-10T08:42:36;46.90;;;24.77;;
5752;SDS011;2901;42.140;24.760;2024-01-10T08:45:03;41.43;;;23.87;;
5752;SDS011;2901;42.140;24.760;2024-01-10T08:47:29;35.60;;;22.13;;
5752;SDS011;2901;42.140;24.760;2024-01-10T08:49:57;34.97;;;22.63;;
5752;SDS011;2901;42.140;24.760;2024-01-10T08:52:23;36.00;;;24.27;;
5752;SDS011;2901;42.140;24.760;2024-01-10T08:54:48;35.07;;;21.57;;
5752;SDS011;2901;42.140;24.760;2024-01-10T08:57:14;30.77;;;20.20;;
5752;SDS011;2901;42.140;24.760;2024-01-10T08:59:41;32.33;;;20.73;;
5752;SDS011;2901;42.140;24.760;2024-01-10T09:02:07;34.33;;;22.17;;
5752;SDS011;2901;42.140;24.760;2024-01-10T09:04:32;41.33;;;21.97;;
5752;SDS011;2901;42.140;24.760;2024-01-10T09:06:58;28.60;;;19.37;;
5752;SDS011;2901;42.140;24.760;2024-01-10T09:09:23;34.03;;;21.87;;
5752;SDS011;2901;42.140;24.760;2024-01-10T09:11:49;40.60;;;21.17;;
5752;SDS011;2901;42.140;24.760;2024-01-10T09:14:14;27.83;;;18.20;;
5752;SDS011;2901;42.140;24.760;2024-01-10T09:16:39;27.53;;;18.17;;
5752;SDS011;2901;42.140;24.760;2024-01-10T09:19:05;26.20;;;16.77;;
5752;SDS011;2901;42.140;24.760;2024-01-10T09:21:30;27.43;;;17.93;;
5752;SDS011;2901;42.140;24.760;2024-01-10T09:23:56;42.27;;;21.00;;
5752;SDS011;2901;42.140;24.760;2024-01-10T09:26:22;33.00;;;18.77;;
5752;SDS011;2901;42.140;24.760;2024-01-10T09:28:48;25.37;;;15.67;;
5752;SDS011;2901;42.140;24.760;2024-01-10T09:31:13;34.07;;;17.50;;
5752;SDS011;2901;42.140;24.760;2024-01-10T09:33:39;30.70;;;17.47;;
5752;SDS011;2901;42.140;24.760;2024-01-10T09:36:04;30.63;;;17.73;;
5752;SDS011;2901;42.140;24.760;2024-01-10T09:38:34;32.33;;;18.50;;
5752;SDS011;2901;42.140;24.760;2024-01-10T09:41:01;24.77;;;15.00;;
5752;SDS011;2901;42.140;24.760;2024-01-10T09:43:29;21.50;;;14.27;;
5752;SDS011;2901;42.140;24.760;2024-01-10T09:45:55;17.43;;;12.93;;
5752;SDS011;2901;42.140;24.760;2024-01-10T09:48:23;14.83;;;12.93;;
5752;SDS011;2901;42.140;24.760;2024-01-10T09:50:50;15.03;;;12.43;;
5752;SDS011;2901;42.140;24.760;2024-01-10T09:53:23;20.60;;;14.20;;
5752;SDS011;2901;42.140;24.760;2024-01-10T09:55:51;15.63;;;14.00;;
5752;SDS011;2901;42.140;24.760;2024-01-10T09:58:17;20.40;;;13.90;;
5752;SDS011;2901;42.140;24.760;2024-01-10T10:00:43;19.07;;;13.50;;
5752;SDS011;2901;42.140;24.760;2024-01-10T10:03:09;14.53;;;12.27;;
5752;SDS011;2901;42.140;24.760;2024-01-10T10:05:39;14.53;;;11.40;;
5752;SDS011;2901;42.140;24.760;2024-01-10T10:08:07;12.97;;;11.20;;
5752;SDS011;2901;42.140;24.760;2024-01-10T10:10:34;12.43;;;10.97;;
5752;SDS011;2901;42.140;24.760;2024-01-10T10:13:00;14.50;;;11.70;;
5752;SDS011;2901;42.140;24.760;2024-01-10T10:15:26;11.47;;;10.37;;
5752;SDS011;2901;42.140;24.760;2024-01-10T10:17:51;14.40;;;9.93;;
5752;SDS011;2901;42.140;24.760;2024-01-10T10:23:06;10.20;;;9.30;;
5752;SDS011;2901;42.140;24.760;2024-01-10T10:25:44;9.37;;;8.53;;
5752;SDS011;2901;42.140;24.760;2024-01-10T10:28:12;13.03;;;10.07;;
5752;SDS011;2901;42.140;24.760;2024-01-10T10:30:37;9.20;;;8.30;;
5752;SDS011;2901;42.140;24.760;2024-01-10T10:33:03;9.83;;;8.30;;
5752;SDS011;2901;42.140;24.760;2024-01-10T10:35:33;11.20;;;8.10;;
5752;SDS011;2901;42.140;24.760;2024-01-10T10:37:59;8.67;;;7.87;;
5752;SDS011;2901;42.140;24.760;2024-01-10T10:40:25;7.73;;;6.97;;
5752;SDS011;2901;42.140;24.760;2024-01-10T10:42:57;8.33;;;7.43;;
5752;SDS011;2901;42.140;24.760;2024-01-10T10:45:22;7.73;;;6.93;;
5752;SDS011;2901;42.140;24.760;2024-01-10T10:47:58;7.30;;;6.63;;
5752;SDS011;2901;42.140;24.760;2024-01-10T10:50:27;6.90;;;6.30;;
5752;SDS011;2901;42.140;24.760;2024-01-10T10:52:57;6.97;;;5.83;;
5752;SDS011;2901;42.140;24.760;2024-01-10T10:55:25;8.83;;;6.87;;
5752;SDS011;2901;42.140;24.760;2024-01-10T10:57:51;7.00;;;6.20;;
5752;SDS011;2901;42.140;24.760;2024-01-10T11:00:19;8.33;;;6.47;;
5752;SDS011;2901;42.140;24.760;2024-01-10T11:02:46;7.03;;;6.53;;
5752;SDS011;2901;42.140;24.760;2024-01-10T11:05:12;6.80;;;6.20;;
5752;SDS011;2901;42.140;24.760;2024-01-10T11:07:38;6.00;;;5.60;;
5752;SDS011;2901;42.140;24.760;2024-01-10T11:10:09;7.47;;;6.57;;
5752;SDS011;2901;42.140;24.760;2024-01-10T11:21:05;6.63;;;5.83;;
5752;SDS011;2901;42.140;24.760;2024-01-10T11:23:33;7.27;;;5.20;;
5752;SDS011;2901;42.140;24.760;2024-01-10T11:26:06;5.30;;;4.93;;
5752;SDS011;2901;42.140;24.760;2024-01-10T11:28:33;5.80;;;5.37;;
5752;SDS011;2901;42.140;24.760;2024-01-10T11:30:58;9.37;;;6.10;;
5752;SDS011;2901;42.140;24.760;2024-01-10T11:33:25;6.23;;;5.67;;
5752;SDS011;2901;42.140;24.760;2024-01-10T11:39:01;7.07;;;6.37;;
5752;SDS011;2901;42.140;24.760;2024-01-10T11:41:31;6.80;;;6.07;;
5752;SDS011;2901;42.140;24.760;2024-01-10T11:46:41;8.00;;;5.90;;
5752;SDS011;2901;42.140;24.760;2024-01-10T11:49:11;6.50;;;5.90;;
5752;SDS011;2901;42.140;24.760;2024-01-10T11:51:38;6.20;;;5.60;;
5752;SDS011;2901;42.140;24.760;2024-01-10T11:54:04;8.70;;;6.37;;
5752;SDS011;2901;42.140;24.760;2024-01-10T11:56:40;7.27;;;6.70;;
5752;SDS011;2901;42.140;24.760;2024-01-10T11:59:07;8.93;;;6.63;;
5752;SDS011;2901;42.140;24.760;2024-01-10T12:01:34;7.33;;;6.33;;
5752;SDS011;2901;42.140;24.760;2024-01-10T12:04:00;6.83;;;6.27;;
5752;SDS011;2901;42.140;24.760;2024-01-10T12:06:29;7.87;;;7.17;;
5752;SDS011;2901;42.140;24.760;2024-01-10T12:08:55;7.53;;;6.83;;
5752;SDS011;2901;42.140;24.760;2024-01-10T12:11:20;7.07;;;6.47;;
5752;SDS011;2901;42.140;24.760;2024-01-10T12:13:46;8.33;;;7.50;;
5752;SDS011;2901;42.140;24.760;2024-01-10T12:16:13;8.97;;;7.37;;
5752;SDS011;2901;42.140;24.760;2024-01-10T12:18:39;15.37;;;7.37;;
5752;SDS011;2901;42.140;24.760;2024-01-10T12:21:05;11.67;;;8.33;;
5752;SDS011;2901;42.140;24.760;2024-01-10T12:23:30;9.27;;;8.13;;
5752;SDS011;2901;42.140;24.760;2024-01-10T12:25:57;8.87;;;7.97;;
5752;SDS011;2901;42.140;24.760;2024-01-10T12:28:23;9.37;;;7.60;;
5752;SDS011;2901;42.140;24.760;2024-01-10T12:30:49;14.47;;;8.10;;
5752;SDS011;2901;42.140;24.760;2024-01-10T12:33:15;18.83;;;9.73;;
5752;SDS011;2901;42.140;24.760;2024-01-10T12:35:40;14.97;;;9.03;;
5752;SDS011;2901;42.140;24.760;2024-01-10T12:38:08;19.37;;;9.47;;
5752;SDS011;2901;42.140;24.760;2024-01-10T12:40:36;9.50;;;8.30;;
5752;SDS011;2901;42.140;24.760;2024-01-10T12:43:05;20.17;;;10.07;;
5752;SDS011;2901;42.140;24.760;2024-01-10T12:45:31;11.37;;;8.83;;
5752;SDS011;2901;42.140;24.760;2024-01-10T12:47:57;13.13;;;9.20;;
5752;SDS011;2901;42.140;24.760;2024-01-10T12:50:22;9.53;;;8.73;;
5752;SDS011;2901;42.140;24.760;2024-01-10T12:52:50;8.83;;;8.17;;
5752;SDS011;2901;42.140;24.760;2024-01-10T12:55:15;17.70;;;8.30;;
5752;SDS011;2901;42.140;24.760;2024-01-10T12:57:42;9.60;;;8.80;;
5752;SDS011;2901;42.140;24.760;2024-01-10T13:00:08;14.10;;;8.80;;
5752;SDS011;2901;42.140;24.760;2024-01-10T13:02:35;10.47;;;9.40;;
5752;SDS011;2901;42.140;24.760;2024-01-10T13:05:05;20.77;;;10.20;;
5752;SDS011;2901;42.140;24.760;2024-01-10T13:07:37;9.93;;;8.93;;
5752;SDS011;2901;42.140;24.760;2024-01-10T13:10:02;9.53;;;8.67;;
5752;SDS011;2901;42.140;24.760;2024-01-10T13:12:28;15.83;;;8.93;;
5752;SDS011;2901;42.140;24.760;2024-01-10T13:14:54;11.73;;;8.90;;
5752;SDS011;2901;42.140;24.760;2024-01-10T13:17:19;9.50;;;8.67;;
5752;SDS011;2901;42.140;24.760;2024-01-10T13:19:45;21.07;;;11.03;;
5752;SDS011;2901;42.140;24.760;2024-01-10T13:22:13;17.27;;;12.10;;
5752;SDS011;2901;42.140;24.760;2024-01-10T13:24:42;15.93;;;13.13;;
5752;SDS011;2901;42.140;24.760;2024-01-10T13:27:07;17.63;;;13.63;;
5752;SDS011;2901;42.140;24.760;2024-01-10T13:29:35;14.13;;;12.63;;
5752;SDS011;2901;42.140;24.760;2024-01-10T13:32:02;20.67;;;13.17;;
5752;SDS011;2901;42.140;24.760;2024-01-10T13:34:28;21.40;;;13.67;;
5752;SDS011;2901;42.140;24.760;2024-01-10T13:36:54;21.27;;;13.70;;
5752;SDS011;2901;42.140;24.760;2024-01-10T13:39:19;21.67;;;13.53;;
5752;SDS011;2901;42.140;24.760;2024-01-10T13:41:44;26.20;;;15.20;;
5752;SDS011;2901;42.140;24.760;2024-01-10T13:44:10;24.60;;;14.23;;
5752;SDS011;2901;42.140;24.760;2024-01-10T13:46:35;24.57;;;15.73;;
5752;SDS011;2901;42.140;24.760;2024-01-10T13:49:00;27.37;;;15.97;;
5752;SDS011;2901;42.140;24.760;2024-01-10T13:51:26;23.70;;;14.37;;
5752;SDS011;2901;42.140;24.760;2024-01-10T13:53:52;23.43;;;15.60;;
5752;SDS011;2901;42.140;24.760;2024-01-10T13:56:17;22.77;;;15.20;;
5752;SDS011;2901;42.140;24.760;2024-01-10T13:58:43;20.60;;;14.40;;
5752;SDS011;2901;42.140;24.760;2024-01-10T14:01:08;26.00;;;15.13;;
5752;SDS011;2901;42.140;24.760;2024-01-10T14:03:34;23.40;;;15.77;;
5752;SDS011;2901;42.140;24.760;2024-01-10T14:05:59;23.53;;;16.30;;
5752;SDS011;2901;42.140;24.760;2024-01-10T14:08:25;22.70;;;17.17;;
5752;SDS011;2901;42.140;24.760;2024-01-10T14:10:50;24.57;;;16.23;;
5752;SDS011;2901;42.140;24.760;2024-01-10T14:13:16;21.53;;;14.97;;
5752;SDS011;2901;42.140;24.760;2024-01-10T14:15:41;31.80;;;16.00;;
5752;SDS011;2901;42.140;24.760;2024-01-10T14:18:07;24.20;;;15.37;;
5752;SDS011;2901;42.140;24.760;2024-01-10T14:20:32;27.00;;;14.97;;
5752;SDS011;2901;42.140;24.760;2024-01-10T14:22:58;20.83;;;16.63;;
5752;SDS011;2901;42.140;24.760;2024-01-10T14:25:24;30.30;;;19.10;;
5752;SDS011;2901;42.140;24.760;2024-01-10T14:27:51;31.33;;;18.23;;
5752;SDS011;2901;42.140;24.760;2024-01-10T14:30:17;28.20;;;16.07;;
5752;SDS011;2901;42.140;24.760;2024-01-10T14:32:44;29.43;;;17.60;;
5752;SDS011;2901;42.140;24.760;2024-01-10T14:35:12;22.93;;;15.97;;
5752;SDS011;2901;42.140;24.760;2024-01-10T14:37:38;23.50;;;16.27;;
5752;SDS011;2901;42.140;24.760;2024-01-10T14:40:04;38.33;;;17.03;;
5752;SDS011;2901;42.140;24.760;2024-01-10T14:42:31;28.87;;;16.77;;
5752;SDS011;2901;42.140;24.760;2024-01-10T14:44:58;28.50;;;17.17;;
5752;SDS011;2901;42.140;24.760;2024-01-10T14:47:24;31.60;;;16.27;;
5752;SDS011;2901;42.140;24.760;2024-01-10T14:49:50;21.73;;;16.53;;